sensor_id;sensor_type;location;lat;lon;timestamp;P1;durP1;ratioP1;P2;durP2;ratioP2
42700;SDS011;28316;49.504;8.526;2024-03-02T00:02:42;10.95;;;5.60;;
42700;SDS011;28316;49.504;8.526;2024-03-02T00:05:13;7.88;;;4.70;;
42700;SDS011;28316;49.504;8.526;2024-03-02T00:07:45;16.63;;;6.40;;
42700;SDS011;28316;49.504;8.526;2024-03-02T00:10:20;13.65;;;6.47;;
42700;SDS011;28316;49.504;8.526;2024-03-02T00:12:54;15.82;;;7.45;;
42700;SDS011;28316;49.504;8.526;2024-03-02T00:18:12;9.77;;;4.60;;
42700;SDS011;28316;49.504;8.526;2024-03-02T00:20:59;5.03;;;2.43;;
42700;SDS011;28316;49.504;8.526;2024-03-02T00:23:29;13.13;;;6.57;;
42700;SDS011;28316;49.504;8.526;2024-03-02T00:25:56;16.55;;;6.32;;
42700;SDS011;28316;49.504;8.526;2024-03-02T00:28:35;8.80;;;3.78;;
42700;SDS011;28316;49.504;8.526;2024-03-02T00:31:06;10.55;;;4.80;;
42700;SDS011;28316;49.504;8.526;2024-03-02T00:33:43;6.35;;;3.92;;
42700;SDS011;28316;49.504;8.526;2024-03-02T00:36:12;9.13;;;5.18;;
42700;SDS011;28316;49.504;8.526;2024-03-02T00:38:47;9.38;;;4.05;;
42700;SDS011;28316;49.504;8.526;2024-03-02T00:41:21;7.35;;;3.38;;
42700;SDS011;28316;49.504;8.526;2024-03-02T00:44:02;12.25;;;5.28;;
42700;SDS011;28316;49.504;8.526;2024-03-02T00:46:39;10.13;;;4.40;;
42700;SDS011;28316;49.504;8.526;2024-03-02T00:49:23;10.30;;;4.13;;
42700;SDS011;28316;49.504;8.526;2024-03-02T00:51:51;4.10;;;2.90;;
42700;SDS011;28316;49.504;8.526;2024-03-02T00:54:19;5.28;;;3.80;;
42700;SDS011;28316;49.504;8.526;2024-03-02T00:56:51;7.70;;;4.32;;
42700;SDS011;28316;49.504;8.526;2024-03-02T00:59:20;6.35;;;4.00;;
42700;SDS011;28316;49.504;8.526;2024-03-02T01:01:47;12.55;;;5.55;;
42700;SDS011;28316;49.504;8.526;2024-03-02T01:04:15;9.38;;;4.95;;
42700;SDS011;28316;49.504;8.526;2024-03-02T01:06:44;7.68;;;4.45;;
42700;SDS011;28316;49.504;8.526;2024-03-02T01:09:10;10.50;;;4.05;;
42700;SDS011;28316;49.504;8.526;2024-03-02T01:11:37;13.20;;;4.70;;
42700;SDS011;28316;49.504;8.526;2024-03-02T01:14:03;11.48;;;5.40;;
42700;SDS011;28316;49.504;8.526;2024-03-02T01:16:29;8.52;;;4.50;;
42700;SDS011;28316;49.504;8.526;2024-03-02T01:18:55;12.45;;;4.70;;
42700;SDS011;28316;49.504;8.526;2024-03-02T01:21:21;13.25;;;4.15;;
42700;SDS011;28316;49.504;8.526;2024-03-02T01:23:47;11.35;;;5.35;;
42700;SDS011;28316;49.504;8.526;2024-03-02T01:26:13;13.50;;;4.80;;
42700;SDS011;28316;49.504;8.526;2024-03-02T01:28:38;10.15;;;3.90;;
42700;SDS011;28316;49.504;8.526;2024-03-02T01:31:04;8.20;;;4.55;;
42700;SDS011;28316;49.504;8.526;2024-03-02T01:33:30;5.55;;;2.78;;
42700;SDS011;28316;49.504;8.526;2024-03-02T01:35:56;8.73;;;4.55;;
42700;SDS011;28316;49.504;8.526;2024-03-02T01:38:22;7.95;;;3.90;;
42700;SDS011;28316;49.504;8.526;2024-03-02T01:40:47;4.97;;;3.38;;
42700;SDS011;28316;49.504;8.526;2024-03-02T01:43:13;5.75;;;3.90;;
42700;SDS011;28316;49.504;8.526;2024-03-02T01:45:39;7.35;;;4.15;;
42700;SDS011;28316;49.504;8.526;2024-03-02T01:48:05;15.88;;;3.92;;
42700;SDS011;28316;49.504;8.526;2024-03-02T01:50:32;9.68;;;3.80;;
42700;SDS011;28316;49.504;8.526;2024-03-02T01:52:59;8.30;;;4.43;;
42700;SDS011;28316;49.504;8.526;2024-03-02T01:55:26;7.28;;;3.88;;
42700;SDS011;28316;49.504;8.526;2024-03-02T01:57:54;8.88;;;4.53;;
42700;SDS011;28316;49.504;8.526;2024-03-02T02:00:20;11.95;;;6.05;;
42700;SDS011;28316;49.504;8.526;2024-03-02T02:02:50;11.57;;;6.13;;
42700;SDS011;28316;49.504;8.526;2024-03-02T02:05:17;11.75;;;4.43;;
42700;SDS011;28316;49.504;8.526;2024-03-02T02:07:43;12.75;;;5.90;;
42700;SDS011;28316;49.504;8.526;2024-03-02T02:10:12;9.55;;;5.20;;
42700;SDS011;28316;49.504;8.526;2024-03-02T02:12:38;11.35;;;4.95;;
42700;SDS011;28316;49.504;8.526;2024-03-02T02:15:20;10.75;;;5.55;;
42700;SDS011;28316;49.504;8.526;2024-03-02T02:17:46;8.85;;;4.57;;
42700;SDS011;28316;49.504;8.526;2024-03-02T02:20:12;8.32;;;4.32;;
42700;SDS011;28316;49.504;8.526;2024-03-02T02:22:38;12.60;;;5.90;;
42700;SDS011;28316;49.504;8.526;2024-03-02T02:25:04;7.70;;;3.72;;
42700;SDS011;28316;49.504;8.526;2024-03-02T02:27:31;6.50;;;3.63;;
42700;SDS011;28316;49.504;8.526;2024-03-02T02:29:56;6.18;;;4.55;;
42700;SDS011;28316;49.504;8.526;2024-03-02T02:32:22;8.30;;;3.45;;
42700;SDS011;28316;49.504;8.526;2024-03-02T02:34:52;15.85;;;4.85;;
42700;SDS011;28316;49.504;8.526;2024-03-02T02:37:17;7.72;;;3.90;;
42700;SDS011;28316;49.504;8.526;2024-03-02T02:39:43;11.10;;;5.95;;
42700;SDS011;28316;49.504;8.526;2024-03-02T02:42:11;8.27;;;3.58;;
42700;SDS011;28316;49.504;8.526;2024-03-02T02:44:37;6.80;;;4.00;;
42700;SDS011;28316;49.504;8.526;2024-03-02T02:47:03;11.27;;;3.63;;
42700;SDS011;28316;49.504;8.526;2024-03-02T02:49:29;9.65;;;5.18;;
42700;SDS011;28316;49.504;8.526;2024-03-02T02:51:54;6.00;;;4.32;;
42700;SDS011;28316;49.504;8.526;2024-03-02T02:54:20;6.25;;;3.40;;
42700;SDS011;28316;49.504;8.526;2024-03-02T02:56:46;6.30;;;3.65;;
42700;SDS011;28316;49.504;8.526;2024-03-02T02:59:11;11.35;;;4.47;;
42700;SDS011;28316;49.504;8.526;2024-03-02T03:01:37;10.15;;;3.47;;
42700;SDS011;28316;49.504;8.526;2024-03-02T03:04:03;7.88;;;3.60;;
42700;SDS011;28316;49.504;8.526;2024-03-02T03:06:29;7.50;;;4.60;;
42700;SDS011;28316;49.504;8.526;2024-03-02T03:08:54;11.65;;;3.92;;
42700;SDS011;28316;49.504;8.526;2024-03-02T03:11:20;9.85;;;4.88;;
42700;SDS011;28316;49.504;8.526;2024-03-02T03:13:49;8.20;;;4.32;;
42700;SDS011;28316;49.504;8.526;2024-03-02T03:16:15;7.45;;;4.18;;
42700;SDS011;28316;49.504;8.526;2024-03-02T03:18:41;7.70;;;4.03;;
42700;SDS011;28316;49.504;8.526;2024-03-02T03:21:07;12.13;;;6.25;;
42700;SDS011;28316;49.504;8.526;2024-03-02T03:23:32;10.10;;;4.65;;
42700;SDS011;28316;49.504;8.526;2024-03-02T03:25:58;7.28;;;3.63;;
42700;SDS011;28316;49.504;8.526;2024-03-02T03:28:24;9.90;;;4.15;;
42700;SDS011;28316;49.504;8.526;2024-03-02T03:30:49;5.75;;;4.25;;
42700;SDS011;28316;49.504;8.526;2024-03-02T03:33:15;6.32;;;3.95;;
42700;SDS011;28316;49.504;8.526;2024-03-02T03:35:41;8.73;;;3.90;;
42700;SDS011;28316;49.504;8.526;2024-03-02T03:38:06;8.73;;;4.57;;
42700;SDS011;28316;49.504;8.526;2024-03-02T03:40:32;9.13;;;3.92;;
42700;SDS011;28316;49.504;8.526;2024-03-02T03:42:58;11.57;;;4.25;;
42700;SDS011;28316;49.504;8.526;2024-03-02T03:45:25;7.60;;;4.15;;
42700;SDS011;28316;49.504;8.526;2024-03-02T03:47:51;5.40;;;4.03;;
42700;SDS011;28316;49.504;8.526;2024-03-02T03:50:18;9.38;;;5.93;;
42700;SDS011;28316;49.504;8.526;2024-03-02T03:52:44;5.75;;;3.53;;
42700;SDS011;28316;49.504;8.526;2024-03-02T03:55:10;11.40;;;4.57;;
42700;SDS011;28316;49.504;8.526;2024-03-02T03:57:36;6.50;;;3.33;;
42700;SDS011;28316;49.504;8.526;2024-03-02T04:00:02;5.70;;;3.78;;
42700;SDS011;28316;49.504;8.526;2024-03-02T04:02:29;11.80;;;3.97;;
42700;SDS011;28316;49.504;8.526;2024-03-02T04:04:54;8.35;;;4.72;;
42700;SDS011;28316;49.504;8.526;2024-03-02T04:07:20;7.13;;;3.50;;
42700;SDS011;28316;49.504;8.526;2024-03-02T04:09:46;12.50;;;5.22;;
42700;SDS011;28316;49.504;8.526;2024-03-02T04:12:12;7.75;;;3.53;;
42700;SDS011;28316;49.504;8.526;2024-03-02T04:14:38;7.00;;;3.60;;
42700;SDS011;28316;49.504;8.526;2024-03-02T04:17:04;7.25;;;4.50;;
42700;SDS011;28316;49.504;8.526;2024-03-02T04:19:30;8.20;;;4.50;;
42700;SDS011;28316;49.504;8.526;2024-03-02T04:21:55;5.57;;;3.95;;
42700;SDS011;28316;49.504;8.526;2024-03-02T04:24:21;8.02;;;3.63;;
42700;SDS011;28316;49.504;8.526;2024-03-02T04:26:47;13.80;;;4.80;;
42700;SDS011;28316;49.504;8.526;2024-03-02T04:29:12;8.45;;;4.50;;
42700;SDS011;28316;49.504;8.526;2024-03-02T04:31:38;7.38;;;5.03;;
42700;SDS011;28316;49.504;8.526;2024-03-02T04:34:04;8.43;;;4.75;;
42700;SDS011;28316;49.504;8.526;2024-03-02T04:36:30;7.72;;;3.85;;
42700;SDS011;28316;49.504;8.526;2024-03-02T04:38:55;10.55;;;4.85;;
42700;SDS011;28316;49.504;8.526;2024-03-02T04:41:21;15.48;;;4.70;;
42700;SDS011;28316;49.504;8.526;2024-03-02T04:43:47;10.60;;;4.63;;
42700;SDS011;28316;49.504;8.526;2024-03-02T04:46:13;9.23;;;4.25;;
42700;SDS011;28316;49.504;8.526;2024-03-02T04:48:39;7.90;;;4.97;;
42700;SDS011;28316;49.504;8.526;2024-03-02T04:51:04;9.20;;;4.60;;
42700;SDS011;28316;49.504;8.526;2024-03-02T04:53:30;8.00;;;4.13;;
42700;SDS011;28316;49.504;8.526;2024-03-02T04:55:56;9.65;;;5.63;;
42700;SDS011;28316;49.504;8.526;2024-03-02T04:58:40;11.73;;;4.80;;
42700;SDS011;28316;49.504;8.526;2024-03-02T05:01:06;10.13;;;4.28;;
42700;SDS011;28316;49.504;8.526;2024-03-02T05:03:31;5.90;;;2.97;;
42700;SDS011;28316;49.504;8.526;2024-03-02T05:05:59;6.63;;;3.42;;
42700;SDS011;28316;49.504;8.526;2024-03-02T05:08:25;10.27;;;3.88;;
42700;SDS011;28316;49.504;8.526;2024-03-02T05:10:51;5.25;;;3.90;;
42700;SDS011;28316;49.504;8.526;2024-03-02T05:13:16;6.40;;;3.63;;
42700;SDS011;28316;49.504;8.526;2024-03-02T05:15:42;4.43;;;2.97;;
42700;SDS011;28316;49.504;8.526;2024-03-02T05:18:08;7.65;;;4.60;;
42700;SDS011;28316;49.504;8.526;2024-03-02T05:20:34;7.53;;;5.18;;
42700;SDS011;28316;49.504;8.526;2024-03-02T05:23:00;11.13;;;4.40;;
42700;SDS011;28316;49.504;8.526;2024-03-02T05:25:25;12.52;;;4.90;;
42700;SDS011;28316;49.504;8.526;2024-03-02T05:27:51;5.63;;;3.60;;
42700;SDS011;28316;49.504;8.526;2024-03-02T05:30:17;8.75;;;4.20;;
42700;SDS011;28316;49.504;8.526;2024-03-02T05:32:42;5.35;;;4.20;;
42700;SDS011;28316;49.504;8.526;2024-03-02T05:35:08;14.82;;;5.25;;
42700;SDS011;28316;49.504;8.526;2024-03-02T05:37:36;15.30;;;5.40;;
42700;SDS011;28316;49.504;8.526;2024-03-02T05:40:02;10.05;;;5.35;;
42700;SDS011;28316;49.504;8.526;2024-03-02T05:42:28;9.02;;;4.60;;
42700;SDS011;28316;49.504;8.526;2024-03-02T05:44:54;9.55;;;4.88;;
42700;SDS011;28316;49.504;8.526;2024-03-02T05:47:19;8.82;;;4.75;;
42700;SDS011;28316;49.504;8.526;2024-03-02T05:49:45;10.35;;;5.82;;
42700;SDS011;28316;49.504;8.526;2024-03-02T05:52:11;11.38;;;4.32;;
42700;SDS011;28316;49.504;8.526;2024-03-02T05:54:37;9.27;;;5.88;;
42700;SDS011;28316;49.504;8.526;2024-03-02T05:57:03;4.65;;;3.42;;
42700;SDS011;28316;49.504;8.526;2024-03-02T05:59:47;5.60;;;3.10;;
42700;SDS011;28316;49.504;8.526;2024-03-02T06:02:13;6.18;;;3.70;;
42700;SDS011;28316;49.504;8.526;2024-03-02T06:04:38;9.15;;;5.68;;
42700;SDS011;28316;49.504;8.526;2024-03-02T06:07:04;10.60;;;4.72;;
42700;SDS011;28316;49.504;8.526;2024-03-02T06:09:30;5.93;;;4.20;;
42700;SDS011;28316;49.504;8.526;2024-03-02T06:11:56;9.10;;;4.85;;
42700;SDS011;28316;49.504;8.526;2024-03-02T06:14:21;8.43;;;4.85;;
42700;SDS011;28316;49.504;8.526;2024-03-02T06:16:47;7.80;;;4.35;;
42700;SDS011;28316;49.504;8.526;2024-03-02T06:19:13;5.50;;;3.28;;
42700;SDS011;28316;49.504;8.526;2024-03-02T06:21:38;8.48;;;4.93;;
42700;SDS011;28316;49.504;8.526;2024-03-02T06:24:05;8.73;;;4.68;;
42700;SDS011;28316;49.504;8.526;2024-03-02T06:26:33;7.70;;;4.20;;
42700;SDS011;28316;49.504;8.526;2024-03-02T06:28:59;14.35;;;3.65;;
42700;SDS011;28316;49.504;8.526;2024-03-02T06:31:27;12.27;;;5.00;;
42700;SDS011;28316;49.504;8.526;2024-03-02T06:33:53;24.02;;;9.63;;
42700;SDS011;28316;49.504;8.526;2024-03-02T06:36:18;15.90;;;10.05;;
42700;SDS011;28316;49.504;8.526;2024-03-02T06:38:44;12.10;;;5.60;;
42700;SDS011;28316;49.504;8.526;2024-03-02T06:41:10;7.28;;;4.03;;
42700;SDS011;28316;49.504;8.526;2024-03-02T06:43:36;8.60;;;4.82;;
42700;SDS011;28316;49.504;8.526;2024-03-02T06:46:01;11.90;;;4.97;;
42700;SDS011;28316;49.504;8.526;2024-03-02T06:48:27;10.48;;;5.47;;
42700;SDS011;28316;49.504;8.526;2024-03-02T06:50:55;7.18;;;3.80;;
42700;SDS011;28316;49.504;8.526;2024-03-02T06:53:21;10.52;;;5.53;;
42700;SDS011;28316;49.504;8.526;2024-03-02T06:55:47;8.00;;;4.85;;
42700;SDS011;28316;49.504;8.526;2024-03-02T06:58:13;11.88;;;5.68;;
42700;SDS011;28316;49.504;8.526;2024-03-02T07:00:42;11.13;;;5.68;;
42700;SDS011;28316;49.504;8.526;2024-03-02T07:03:11;5.25;;;4.50;;
42700;SDS011;28316;49.504;8.526;2024-03-02T07:05:37;11.35;;;5.70;;
42700;SDS011;28316;49.504;8.526;2024-03-02T07:08:03;10.85;;;4.88;;
42700;SDS011;28316;49.504;8.526;2024-03-02T07:10:30;7.65;;;3.55;;
42700;SDS011;28316;49.504;8.526;2024-03-02T07:12:55;5.55;;;4.07;;
42700;SDS011;28316;49.504;8.526;2024-03-02T07:15:21;8.70;;;5.07;;
42700;SDS011;28316;49.504;8.526;2024-03-02T07:18:04;12.60;;;5.63;;
42700;SDS011;28316;49.504;8.526;2024-03-02T07:20:30;11.57;;;5.30;;
42700;SDS011;28316;49.504;8.526;2024-03-02T07:22:55;10.60;;;5.20;;
42700;SDS011;28316;49.504;8.526;2024-03-02T07:25:21;10.70;;;5.85;;
42700;SDS011;28316;49.504;8.526;2024-03-02T07:27:47;10.10;;;5.80;;
42700;SDS011;28316;49.504;8.526;2024-03-02T07:30:16;13.35;;;5.78;;
42700;SDS011;28316;49.504;8.526;2024-03-02T07:32:41;8.88;;;4.45;;
42700;SDS011;28316;49.504;8.526;2024-03-02T07:35:10;8.55;;;5.22;;
42700;SDS011;28316;49.504;8.526;2024-03-02T07:37:40;8.27;;;4.75;;
42700;SDS011;28316;49.504;8.526;2024-03-02T07:40:07;9.63;;;5.05;;
42700;SDS011;28316;49.504;8.526;2024-03-02T07:42:40;11.35;;;4.68;;
42700;SDS011;28316;49.504;8.526;2024-03-02T07:45:06;12.90;;;5.05;;
42700;SDS011;28316;49.504;8.526;2024-03-02T07:47:33;18.55;;;5.10;;
42700;SDS011;28316;49.504;8.526;2024-03-02T07:49:59;16.50;;;5.60;;
42700;SDS011;28316;49.504;8.526;2024-03-02T07:52:25;10.75;;;6.00;;
42700;SDS011;28316;49.504;8.526;2024-03-02T07:54:51;11.05;;;5.78;;
42700;SDS011;28316;49.504;8.526;2024-03-02T07:57:17;13.25;;;4.70;;
42700;SDS011;28316;49.504;8.526;2024-03-02T07:59:42;10.57;;;6.18;;
42700;SDS011;28316;49.504;8.526;2024-03-02T08:02:08;10.93;;;5.93;;
42700;SDS011;28316;49.504;8.526;2024-03-02T08:04:35;9.07;;;4.47;;
42700;SDS011;28316;49.504;8.526;2024-03-02T08:07:02;14.45;;;4.95;;
42700;SDS011;28316;49.504;8.526;2024-03-02T08:09:28;8.82;;;5.85;;
42700;SDS011;28316;49.504;8.526;2024-03-02T08:11:53;6.78;;;4.45;;
42700;SDS011;28316;49.504;8.526;2024-03-02T08:14:19;14.45;;;4.65;;
42700;SDS011;28316;49.504;8.526;2024-03-02T08:16:45;15.82;;;5.47;;
42700;SDS011;28316;49.504;8.526;2024-03-02T08:19:11;13.38;;;5.28;;
42700;SDS011;28316;49.504;8.526;2024-03-02T08:21:37;9.40;;;5.10;;
42700;SDS011;28316;49.504;8.526;2024-03-02T08:24:03;10.60;;;4.40;;
42700;SDS011;28316;49.504;8.526;2024-03-02T08:26:29;7.43;;;3.33;;
42700;SDS011;28316;49.504;8.526;2024-03-02T08:28:56;11.52;;;4.80;;
42700;SDS011;28316;49.504;8.526;2024-03-02T08:31:23;10.07;;;4.72;;
42700;SDS011;28316;49.504;8.526;2024-03-02T08:33:49;9.23;;;3.60;;
42700;SDS011;28316;49.504;8.526;2024-03-02T08:36:15;11.15;;;4.13;;
42700;SDS011;28316;49.504;8.526;2024-03-02T08:38:41;7.15;;;3.83;;
42700;SDS011;28316;49.504;8.526;2024-03-02T08:41:07;8.25;;;3.83;;
42700;SDS011;28316;49.504;8.526;2024-03-02T08:43:33;9.57;;;3.35;;
42700;SDS011;28316;49.504;8.526;2024-03-02T08:45:59;12.70;;;5.05;;
42700;SDS011;28316;49.504;8.526;2024-03-02T08:48:25;6.60;;;3.67;;
42700;SDS011;28316;49.504;8.526;2024-03-02T08:50:50;10.75;;;4.63;;
42700;SDS011;28316;49.504;8.526;2024-03-02T08:53:16;16.88;;;3.92;;
42700;SDS011;28316;49.504;8.526;2024-03-02T08:55:44;12.98;;;4.72;;
42700;SDS011;28316;49.504;8.526;2024-03-02T08:58:11;6.50;;;2.95;;
42700;SDS011;28316;49.504;8.526;2024-03-02T09:00:37;11.77;;;4.57;;
42700;SDS011;28316;49.504;8.526;2024-03-02T09:03:03;10.70;;;4.32;;
42700;SDS011;28316;49.504;8.526;2024-03-02T09:05:29;9.07;;;4.88;;
42700;SDS011;28316;49.504;8.526;2024-03-02T09:07:55;11.50;;;4.40;;
42700;SDS011;28316;49.504;8.526;2024-03-02T09:10:20;9.02;;;3.95;;
42700;SDS011;28316;49.504;8.526;2024-03-02T09:12:46;8.00;;;3.97;;
42700;SDS011;28316;49.504;8.526;2024-03-02T09:15:12;7.68;;;3.53;;
42700;SDS011;28316;49.504;8.526;2024-03-02T09:17:38;6.55;;;3.53;;
42700;SDS011;28316;49.504;8.526;2024-03-02T09:20:04;4.60;;;2.67;;
42700;SDS011;28316;49.504;8.526;2024-03-02T09:22:30;6.03;;;3.17;;
42700;SDS011;28316;49.504;8.526;2024-03-02T09:24:57;7.43;;;3.17;;
42700;SDS011;28316;49.504;8.526;2024-03-02T09:27:23;6.43;;;2.58;;
42700;SDS011;28316;49.504;8.526;2024-03-02T09:29:50;8.50;;;3.92;;
42700;SDS011;28316;49.504;8.526;2024-03-02T09:32:16;6.95;;;2.75;;
42700;SDS011;28316;49.504;8.526;2024-03-02T09:34:41;9.52;;;2.95;;
42700;SDS011;28316;49.504;8.526;2024-03-02T09:37:08;8.48;;;2.92;;
42700;SDS011;28316;49.504;8.526;2024-03-02T09:39:34;4.57;;;2.33;;
42700;SDS011;28316;49.504;8.526;2024-03-02T09:41:59;3.25;;;2.03;;
42700;SDS011;28316;49.504;8.526;2024-03-02T09:44:26;8.55;;;2.80;;
42700;SDS011;28316;49.504;8.526;2024-03-02T09:46:52;8.80;;;2.95;;
42700;SDS011;28316;49.504;8.526;2024-03-02T09:49:18;4.80;;;2.25;;
42700;SDS011;28316;49.504;8.526;2024-03-02T09:51:47;7.82;;;3.10;;
42700;SDS011;28316;49.504;8.526;2024-03-02T09:54:15;3.22;;;2.08;;
42700;SDS011;28316;49.504;8.526;2024-03-02T09:56:41;4.35;;;1.92;;
42700;SDS011;28316;49.504;8.526;2024-03-02T09:59:07;7.93;;;3.67;;
42700;SDS011;28316;49.504;8.526;2024-03-02T10:01:33;4.63;;;2.20;;
42700;SDS011;28316;49.504;8.526;2024-03-02T10:03:59;2.47;;;1.40;;
42700;SDS011;28316;49.504;8.526;2024-03-02T10:06:25;5.95;;;2.40;;
42700;SDS011;28316;49.504;8.526;2024-03-02T10:08:52;5.38;;;2.67;;
42700;SDS011;28316;49.504;8.526;2024-03-02T10:14:05;4.28;;;1.85;;
42700;SDS011;28316;49.504;8.526;2024-03-02T10:16:33;5.82;;;2.35;;
42700;SDS011;28316;49.504;8.526;2024-03-02T10:21:55;2.67;;;1.60;;
42700;SDS011;28316;49.504;8.526;2024-03-02T10:24:23;4.13;;;2.13;;
42700;SDS011;28316;49.504;8.526;2024-03-02T10:26:50;3.45;;;2.08;;
42700;SDS011;28316;49.504;8.526;2024-03-02T10:29:18;5.55;;;1.90;;
42700;SDS011;28316;49.504;8.526;2024-03-02T10:32:01;5.57;;;2.47;;
42700;SDS011;28316;49.504;8.526;2024-03-02T10:34:27;4.10;;;1.92;;
42700;SDS011;28316;49.504;8.526;2024-03-02T10:36:53;4.65;;;2.40;;
42700;SDS011;28316;49.504;8.526;2024-03-02T10:39:20;5.07;;;2.22;;
42700;SDS011;28316;49.504;8.526;2024-03-02T10:41:46;4.55;;;1.88;;
42700;SDS011;28316;49.504;8.526;2024-03-02T10:44:14;6.60;;;2.10;;
42700;SDS011;28316;49.504;8.526;2024-03-02T10:46:41;5.78;;;2.60;;
42700;SDS011;28316;49.504;8.526;2024-03-02T10:49:09;7.95;;;2.63;;
42700;SDS011;28316;49.504;8.526;2024-03-02T10:51:34;4.85;;;1.88;;
42700;SDS011;28316;49.504;8.526;2024-03-02T10:54:02;6.70;;;1.60;;
42700;SDS011;28316;49.504;8.526;2024-03-02T10:56:30;4.50;;;2.20;;
42700;SDS011;28316;49.504;8.526;2024-03-02T10:59:26;4.00;;;1.60;;
42700;SDS011;28316;49.504;8.526;2024-03-02T11:02:01;7.88;;;1.63;;
42700;SDS011;28316;49.504;8.526;2024-03-02T11:04:33;5.82;;;2.13;;
42700;SDS011;28316;49.504;8.526;2024-03-02T11:07:02;5.95;;;2.05;;
42700;SDS011;28316;49.504;8.526;2024-03-02T11:09:45;2.58;;;1.38;;
42700;SDS011;28316;49.504;8.526;2024-03-02T11:12:43;4.45;;;1.45;;
42700;SDS011;28316;49.504;8.526;2024-03-02T11:15:18;3.78;;;1.58;;
42700;SDS011;28316;49.504;8.526;2024-03-02T11:17:44;3.80;;;1.65;;
42700;SDS011;28316;49.504;8.526;2024-03-02T11:20:11;6.15;;;1.55;;
42700;SDS011;28316;49.504;8.526;2024-03-02T11:22:38;2.35;;;1.13;;
42700;SDS011;28316;49.504;8.526;2024-03-02T11:25:04;2.58;;;1.48;;
42700;SDS011;28316;49.504;8.526;2024-03-02T11:30:48;2.65;;;1.48;;
42700;SDS011;28316;49.504;8.526;2024-03-02T11:33:08;2.28;;;1.23;;
42700;SDS011;28316;49.504;8.526;2024-03-02T11:35:35;3.10;;;1.15;;
42700;SDS011;28316;49.504;8.526;2024-03-02T11:38:11;3.17;;;1.27;;
42700;SDS011;28316;49.504;8.526;2024-03-02T11:40:38;3.25;;;1.38;;
42700;SDS011;28316;49.504;8.526;2024-03-02T11:43:05;2.92;;;1.17;;
42700;SDS011;28316;49.504;8.526;2024-03-02T11:45:33;4.85;;;1.27;;
42700;SDS011;28316;49.504;8.526;2024-03-02T11:47:59;3.28;;;1.38;;
42700;SDS011;28316;49.504;8.526;2024-03-02T11:50:29;2.88;;;1.15;;
42700;SDS011;28316;49.504;8.526;2024-03-02T11:52:55;1.90;;;0.93;;
42700;SDS011;28316;49.504;8.526;2024-03-02T11:55:23;1.98;;;0.90;;
42700;SDS011;28316;49.504;8.526;2024-03-02T11:57:52;1.42;;;0.80;;
42700;SDS011;28316;49.504;8.526;2024-03-02T12:00:21;2.95;;;1.02;;
42700;SDS011;28316;49.504;8.526;2024-03-02T12:03:03;1.65;;;0.52;;
42700;SDS011;28316;49.504;8.526;2024-03-02T12:05:35;1.75;;;0.88;;
42700;SDS011;28316;49.504;8.526;2024-03-02T12:08:01;1.80;;;0.90;;
42700;SDS011;28316;49.504;8.526;2024-03-02T12:10:30;2.17;;;0.85;;
42700;SDS011;28316;49.504;8.526;2024-03-02T12:15:24;3.33;;;1.83;;
42700;SDS011;28316;49.504;8.526;2024-03-02T12:17:59;3.95;;;0.60;;
42700;SDS011;28316;49.504;8.526;2024-03-02T12:20:27;3.45;;;0.80;;
42700;SDS011;28316;49.504;8.526;2024-03-02T12:22:55;1.02;;;0.60;;
42700;SDS011;28316;49.504;8.526;2024-03-02T12:25:23;1.40;;;0.65;;
42700;SDS011;28316;49.504;8.526;2024-03-02T12:27:51;6.75;;;1.27;;
42700;SDS011;28316;49.504;8.526;2024-03-02T12:30:22;2.30;;;1.08;;
42700;SDS011;28316;49.504;8.526;2024-03-02T12:32:50;0.65;;;0.32;;
42700;SDS011;28316;49.504;8.526;2024-03-02T12:35:17;0.20;;;0.20;;
42700;SDS011;28316;49.504;8.526;2024-03-02T12:37:47;2.70;;;0.95;;
42700;SDS011;28316;49.504;8.526;2024-03-02T12:40:15;0.68;;;0.30;;
42700;SDS011;28316;49.504;8.526;2024-03-02T12:42:46;1.20;;;0.35;;
42700;SDS011;28316;49.504;8.526;2024-03-02T12:45:12;0.88;;;0.40;;
42700;SDS011;28316;49.504;8.526;2024-03-02T12:47:39;0.77;;;0.30;;
42700;SDS011;28316;49.504;8.526;2024-03-02T12:50:06;0.15;;;0.10;;
42700;SDS011;28316;49.504;8.526;2024-03-02T12:52:33;0.32;;;0.10;;
42700;SDS011;28316;49.504;8.526;2024-03-02T12:55:00;0.20;;;0.10;;
42700;SDS011;28316;49.504;8.526;2024-03-02T12:57:28;0.70;;;0.10;;
42700;SDS011;28316;49.504;8.526;2024-03-02T13:00:05;0.10;;;0.10;;
42700;SDS011;28316;49.504;8.526;2024-03-02T13:02:34;0.82;;;0.40;;
42700;SDS011;28316;49.504;8.526;2024-03-02T13:05:02;0.85;;;0.40;;
42700;SDS011;28316;49.504;8.526;2024-03-02T13:07:28;1.80;;;0.55;;
42700;SDS011;28316;49.504;8.526;2024-03-02T13:09:57;1.00;;;0.47;;
42700;SDS011;28316;49.504;8.526;2024-03-02T13:12:24;0.40;;;0.20;;
42700;SDS011;28316;49.504;8.526;2024-03-02T13:14:53;1.30;;;0.50;;
42700;SDS011;28316;49.504;8.526;2024-03-02T13:17:19;0.63;;;0.30;;
42700;SDS011;28316;49.504;8.526;2024-03-02T13:22:27;1.33;;;0.45;;
42700;SDS011;28316;49.504;8.526;2024-03-02T13:24:53;3.17;;;0.65;;
42700;SDS011;28316;49.504;8.526;2024-03-02T13:27:22;0.45;;;0.30;;
42700;SDS011;28316;49.504;8.526;2024-03-02T13:29:48;14.80;;;6.07;;
42700;SDS011;28316;49.504;8.526;2024-03-02T13:32:15;0.95;;;0.60;;
42700;SDS011;28316;49.504;8.526;2024-03-02T13:34:41;1.05;;;0.55;;
42700;SDS011;28316;49.504;8.526;2024-03-02T13:37:07;0.85;;;0.40;;
42700;SDS011;28316;49.504;8.526;2024-03-02T13:39:33;1.05;;;0.60;;
42700;SDS011;28316;49.504;8.526;2024-03-02T13:42:08;1.25;;;0.45;;
42700;SDS011;28316;49.504;8.526;2024-03-02T13:44:40;3.33;;;0.55;;
42700;SDS011;28316;49.504;8.526;2024-03-02T13:47:09;0.63;;;0.40;;
42700;SDS011;28316;49.504;8.526;2024-03-02T13:49:35;1.42;;;0.80;;
42700;SDS011;28316;49.504;8.526;2024-03-02T13:52:06;1.48;;;0.60;;
42700;SDS011;28316;49.504;8.526;2024-03-02T13:54:45;2.20;;;1.02;;
42700;SDS011;28316;49.504;8.526;2024-03-02T13:57:12;1.92;;;0.60;;
42700;SDS011;28316;49.504;8.526;2024-03-02T13:59:39;2.83;;;1.13;;
42700;SDS011;28316;49.504;8.526;2024-03-02T14:02:06;2.55;;;1.05;;
42700;SDS011;28316;49.504;8.526;2024-03-02T14:04:33;5.07;;;1.90;;
42700;SDS011;28316;49.504;8.526;2024-03-02T14:07:00;1.25;;;0.90;;
42700;SDS011;28316;49.504;8.526;2024-03-02T14:09:26;1.75;;;0.60;;
42700;SDS011;28316;49.504;8.526;2024-03-02T14:11:53;2.67;;;0.88;;
42700;SDS011;28316;49.504;8.526;2024-03-02T14:14:20;1.60;;;0.85;;
42700;SDS011;28316;49.504;8.526;2024-03-02T14:16:46;4.70;;;0.82;;
42700;SDS011;28316;49.504;8.526;2024-03-02T14:19:12;2.88;;;0.60;;
42700;SDS011;28316;49.504;8.526;2024-03-02T14:21:38;1.35;;;0.80;;
42700;SDS011;28316;49.504;8.526;2024-03-02T14:24:05;1.33;;;0.65;;
42700;SDS011;28316;49.504;8.526;2024-03-02T14:26:34;3.30;;;0.85;;
42700;SDS011;28316;49.504;8.526;2024-03-02T14:29:01;0.60;;;0.47;;
42700;SDS011;28316;49.504;8.526;2024-03-02T14:31:28;1.10;;;0.47;;
42700;SDS011;28316;49.504;8.526;2024-03-02T14:33:56;0.90;;;0.38;;
42700;SDS011;28316;49.504;8.526;2024-03-02T14:36:21;1.08;;;0.47;;
42700;SDS011;28316;49.504;8.526;2024-03-02T14:38:47;1.05;;;0.55;;
42700;SDS011;28316;49.504;8.526;2024-03-02T14:41:14;0.77;;;0.30;;
42700;SDS011;28316;49.504;8.526;2024-03-02T14:43:40;1.23;;;0.32;;
42700;SDS011;28316;49.504;8.526;2024-03-02T14:46:06;0.93;;;0.45;;
42700;SDS011;28316;49.504;8.526;2024-03-02T14:48:35;1.30;;;0.52;;
42700;SDS011;28316;49.504;8.526;2024-03-02T14:51:02;0.25;;;0.20;;
42700;SDS011;28316;49.504;8.526;2024-03-02T14:53:28;1.13;;;0.55;;
42700;SDS011;28316;49.504;8.526;2024-03-02T14:55:54;0.32;;;0.30;;
42700;SDS011;28316;49.504;8.526;2024-03-02T14:58:20;2.88;;;0.20;;
42700;SDS011;28316;49.504;8.526;2024-03-02T15:00:46;2.80;;;0.82;;
42700;SDS011;28316;49.504;8.526;2024-03-02T15:03:12;1.10;;;0.50;;